createdAt,value
2019-05-29T00:00:53.928Z,101729.67
2019-05-29T00:03:24.581Z,101731.41
2019-05-29T00:05:54.893Z,101733.98
2019-05-29T00:08:25.927Z,101737.05
2019-05-29T00:10:56.179Z,101737.88
2019-05-29T00:13:26.547Z,101740.48
2019-05-29T00:15:56.797Z,101738.59
2019-05-29T00:18:27.082Z,101745.41
2019-05-29T00:20:57.330Z,101738.84
2019-05-29T00:23:27.757Z,101746.30
2019-05-29T00:26:01.129Z,101742.77
2019-05-29T00:28:31.482Z,101750.60
2019-05-29T00:31:01.842Z,101746.61
2019-05-29T00:33:32.130Z,101744.88
2019-05-29T00:36:02.918Z,101750.04
2019-05-29T00:38:33.726Z,101753.79
2019-05-29T00:41:05.040Z,101747.61
2019-05-29T00:43:35.472Z,101753.26
2019-05-29T00:46:05.754Z,101753.65
2019-05-29T00:48:36.711Z,101758.80
2019-05-29T00:51:07.380Z,101753.44
2019-05-29T00:53:38.402Z,101762.11
2019-05-29T00:56:10.484Z,101750.75
2019-05-29T00:58:41.594Z,101751.91
2019-05-29T01:01:13.306Z,101753.22
2019-05-29T01:03:44.454Z,101759.33
2019-05-29T01:06:16.092Z,101758.76
2019-05-29T01:08:47.052Z,101753.08
2019-05-29T01:11:18.713Z,101759.53
2019-05-29T01:13:49.888Z,101758.22
2019-05-29T01:16:20.311Z,101755.47
2019-05-29T01:18:51.761Z,101754.58
2019-05-29T01:21:22.233Z,101756.31
2019-05-29T01:23:52.533Z,101762.41
2019-05-29T01:26:22.943Z,101762.95
2019-05-29T01:28:54.657Z,101761.33
2019-05-29T01:31:25.117Z,101763.55
2019-05-29T01:33:55.407Z,101772.03
2019-05-29T01:36:26.761Z,101768.22
2019-05-29T01:38:57.993Z,101768.26
2019-05-29T01:41:28.358Z,101769.95
2019-05-29T01:43:59.901Z,101765.19
2019-05-29T01:46:30.217Z,101769.07
2019-05-29T01:49:03.541Z,101769.42
2019-05-29T01:51:34.253Z,101767.69
2019-05-29T01:54:05.021Z,101764.27
2019-05-29T01:56:35.733Z,101774.33
2019-05-29T01:59:06.341Z,101774.75
2019-05-29T02:01:36.766Z,101769.49
2019-05-29T02:04:07.914Z,101770.94
2019-05-29T02:06:38.233Z,101775.17
2019-05-29T02:09:09.177Z,101768.58
2019-05-29T02:11:39.861Z,101774.95
2019-05-29T02:14:11.865Z,101780.18
2019-05-29T02:16:42.353Z,101775.84
2019-05-29T02:19:15.798Z,101778.45
2019-05-29T02:21:46.035Z,101777.60
2019-05-29T02:24:17.074Z,101779.33
2019-05-29T02:26:47.554Z,101779.76
2019-05-29T02:29:18.757Z,101777.07
2019-05-29T02:31:49.143Z,101779.30
2019-05-29T02:34:20.027Z,101785.36
2019-05-29T02:36:50.731Z,101783.10
2019-05-29T02:39:23.119Z,101778.58
2019-05-29T02:41:54.117Z,101789.48
2019-05-29T02:44:25.559Z,101790.75
2019-05-29T02:46:57.182Z,101789.02
2019-05-29T02:49:30.128Z,101783.64
2019-05-29T02:52:00.681Z,101775.81
2019-05-29T02:54:32.412Z,101780.23
2019-05-29T02:57:03.120Z,101782.20
2019-05-29T02:59:34.064Z,101779.13
2019-05-29T03:02:04.378Z,101775.31
2019-05-29T03:04:34.809Z,101780.43
2019-05-29T03:07:05.696Z,101781.27
2019-05-29T03:09:37.047Z,101779.05
2019-05-29T03:12:08.138Z,101778.20
2019-05-29T03:14:38.820Z,101781.20
2019-05-29T03:17:09.592Z,101775.48
2019-05-29T03:19:41.271Z,101773.17
2019-05-29T03:22:12.606Z,101778.93
2019-05-29T03:24:42.933Z,101778.39
2019-05-29T03:27:13.293Z,101780.50
2019-05-29T03:29:43.540Z,101787.06
2019-05-29T03:32:14.718Z,101786.22
2019-05-29T03:34:47.399Z,101794.31
2019-05-29T03:37:18.547Z,101801.22
2019-05-29T03:39:48.945Z,101807.63
2019-05-29T03:42:19.985Z,101804.89
2019-05-29T03:44:50.298Z,101813.48
2019-05-29T03:47:20.523Z,101813.87
2019-05-29T03:49:53.418Z,101809.07
2019-05-29T03:52:26.317Z,101809.95
2019-05-29T03:54:56.862Z,101811.09
2019-05-29T03:57:29.803Z,101809.07
2019-05-29T04:00:00.431Z,101813.87
2019-05-29T04:02:31.303Z,101818.03
2019-05-29T04:05:02.922Z,101816.69
2019-05-29T04:07:35.622Z,101821.27
2019-05-29T04:10:08.514Z,101820.27
2019-05-29T04:12:38.748Z,101823.55
2019-05-29T04:15:11.082Z,101826.70
2019-05-29T04:17:43.958Z,101829.15
2019-05-29T04:20:16.968Z,101825.28
2019-05-29T04:22:48.855Z,101826.12
2019-05-29T04:25:21.081Z,101836.17
2019-05-29T04:27:52.010Z,101832.76
2019-05-29T04:30:23.737Z,101833.10
2019-05-29T04:32:54.872Z,101839.12
2019-05-29T04:35:25.262Z,101842.06
2019-05-29T04:37:55.547Z,101834.88
2019-05-29T04:40:26.179Z,101833.34
2019-05-29T04:42:57.151Z,101822.82
2019-05-29T04:45:30.890Z,101819.84
2019-05-29T04:48:01.664Z,101813.30
2019-05-29T04:50:35.731Z,101816.68
2019-05-29T04:53:05.881Z,101824.11
2019-05-29T04:55:37.001Z,101827.85
2019-05-29T04:58:08.474Z,101819.52
2019-05-29T05:00:40.125Z,101822.61
2019-05-29T05:03:10.450Z,101817.80
2019-05-29T05:05:40.803Z,101817.02
2019-05-29T05:08:11.508Z,101827.85
2019-05-29T05:10:43.677Z,101828.58
2019-05-29T05:13:14.686Z,101835.78
2019-05-29T05:15:46.887Z,101846.59
2019-05-29T05:18:17.337Z,101846.41
2019-05-29T05:20:48.051Z,101847.49
2019-05-29T05:23:18.565Z,101849.55
2019-05-29T05:25:48.990Z,101852.05
2019-05-29T05:28:19.353Z,101837.57
2019-05-29T05:30:51.631Z,101842.88
2019-05-29T05:33:22.367Z,101846.23
2019-05-29T05:35:52.657Z,101851.14
2019-05-29T05:38:23.845Z,101852.34
2019-05-29T05:40:55.121Z,101855.03
2019-05-29T05:43:25.546Z,101857.48
2019-05-29T05:45:56.793Z,101853.48
2019-05-29T05:48:27.104Z,101847.68
2019-05-29T05:50:58.206Z,101849.80
2019-05-29T05:53:28.473Z,101851.45
2019-05-29T05:55:59.722Z,101853.48
2019-05-29T05:58:31.555Z,101850.33
2019-05-29T06:01:02.627Z,101847.52
2019-05-29T06:03:33.942Z,101856.28
2019-05-29T06:06:04.815Z,101852.72
2019-05-29T06:08:36.651Z,101854.80
2019-05-29T06:11:07.857Z,101856.84
2019-05-29T06:13:38.411Z,101851.70
2019-05-29T06:16:09.322Z,101855.24
2019-05-29T06:18:40.648Z,101862.30
2019-05-29T06:21:11.639Z,101869.71
2019-05-29T06:23:43.201Z,101869.70
2019-05-29T06:26:14.645Z,101866.63
2019-05-29T06:28:45.492Z,101865.75
2019-05-29T06:31:18.327Z,101881.57
2019-05-29T06:33:48.561Z,101889.53
2019-05-29T06:36:18.961Z,101897.51
2019-05-29T06:38:51.485Z,101898.39
2019-05-29T06:41:22.130Z,101901.02
2019-05-29T06:43:52.805Z,101897.96
2019-05-29T06:46:23.791Z,101904.55
2019-05-29T06:49:00.449Z,101900.15
2019-05-29T06:51:26.452Z,101893.55
2019-05-29T06:53:56.803Z,101909.40
2019-05-29T06:56:27.450Z,101912.89
2019-05-29T06:58:58.185Z,101912.00
2019-05-29T07:01:28.837Z,101914.21
2019-05-29T07:04:11.119Z,101921.66
2019-05-29T07:06:32.618Z,101914.60
2019-05-29T07:09:05.437Z,101915.02
2019-05-29T07:11:37.132Z,101923.22
2019-05-29T07:14:08.703Z,101928.37
2019-05-29T07:16:47.626Z,101933.70
2019-05-29T07:19:25.581Z,101930.22
2019-05-29T07:21:47.085Z,101933.38
2019-05-29T07:24:17.578Z,101930.33
2019-05-29T07:26:48.406Z,101938.75
2019-05-29T07:29:19.052Z,101940.11
2019-05-29T07:31:49.414Z,101941.02
2019-05-29T07:34:19.786Z,101943.67
2019-05-29T07:36:50.629Z,101946.76
2019-05-29T07:39:20.937Z,101944.14
2019-05-29T07:41:51.692Z,101944.15
2019-05-29T07:44:22.199Z,101940.62
2019-05-29T07:46:53.139Z,101943.25
2019-05-29T07:49:38.123Z,101934.87
2019-05-29T07:51:56.240Z,101942.64
2019-05-29T07:54:26.498Z,101942.52
2019-05-29T07:56:56.773Z,101932.75
2019-05-29T07:59:28.701Z,101938.03
2019-05-29T08:02:01.111Z,101932.79
2019-05-29T08:04:31.546Z,101939.08
2019-05-29T08:07:03.057Z,101937.78
2019-05-29T08:09:36.127Z,101938.22
2019-05-29T08:12:07.069Z,101933.77
2019-05-29T08:14:38.054Z,101943.03
2019-05-29T08:17:08.385Z,101944.85
2019-05-29T08:19:53.512Z,101940.06
2019-05-29T08:22:11.889Z,101945.42
2019-05-29T08:24:42.723Z,101949.83
2019-05-29T08:27:13.023Z,101940.59
2019-05-29T08:29:44.744Z,101943.66
2019-05-29T08:32:16.251Z,101938.30
2019-05-29T08:34:47.087Z,101942.27
2019-05-29T08:39:59.403Z,101937.70
2019-05-29T08:42:30.873Z,101926.90
2019-05-29T08:45:01.140Z,101922.66
2019-05-29T08:47:31.501Z,101923.45
2019-05-29T08:50:17.463Z,101931.48
2019-05-29T08:52:34.479Z,101930.95
2019-05-29T08:55:05.624Z,101935.67
2019-05-29T08:57:37.424Z,101930.12
2019-05-29T09:00:09.658Z,101938.61
2019-05-29T09:02:42.651Z,101934.31
2019-05-29T09:05:14.893Z,101937.12
2019-05-29T09:07:46.426Z,101924.28
2019-05-29T09:10:18.347Z,101929.06
2019-05-29T09:13:01.872Z,101932.09
2019-05-29T09:15:23.083Z,101930.70
2019-05-29T09:17:54.121Z,101924.50
2019-05-29T09:20:37.133Z,101922.27
2019-05-29T09:22:57.723Z,101928.08
2019-05-29T09:25:27.973Z,101932.57
2019-05-29T09:27:58.518Z,101934.03
2019-05-29T09:30:28.909Z,101934.94
2019-05-29T09:32:59.534Z,101938.73
2019-05-29T09:35:29.851Z,101933.41
2019-05-29T09:38:00.386Z,101932.50
2019-05-29T09:40:31.210Z,101933.84
2019-05-29T09:43:03.103Z,101935.09
2019-05-29T09:45:33.421Z,101936.94
2019-05-29T09:48:03.845Z,101940.98
2019-05-29T09:50:49.646Z,101933.89
2019-05-29T09:53:07.514Z,101936.84
2019-05-29T09:55:38.435Z,101929.66
2019-05-29T09:58:09.254Z,101928.81
2019-05-29T10:00:39.850Z,101935.13
2019-05-29T10:03:11.570Z,101946.58
2019-05-29T10:05:43.473Z,101942.22
2019-05-29T10:08:16.956Z,101941.28
2019-05-29T10:10:49.739Z,101931.19
2019-05-29T10:13:20.155Z,101929.00
2019-05-29T10:15:51.036Z,101935.11
2019-05-29T10:18:32.101Z,101940.39
2019-05-29T10:20:54.794Z,101939.41
2019-05-29T10:23:27.055Z,101938.73
2019-05-29T10:26:00.279Z,101944.05
2019-05-29T10:28:49.498Z,101946.23
2019-05-29T10:31:04.023Z,101946.30
2019-05-29T10:33:35.230Z,101942.38
2019-05-29T10:36:05.860Z,101938.87
2019-05-29T10:38:37.640Z,101942.80
2019-05-29T10:41:08.269Z,101941.94
2019-05-29T10:43:39.078Z,101946.75
2019-05-29T10:46:09.395Z,101950.68
2019-05-29T10:48:39.752Z,101957.68
2019-05-29T10:51:09.982Z,101947.99
2019-05-29T10:53:41.600Z,101950.62
2019-05-29T10:56:11.867Z,101944.91
2019-05-29T10:58:49.762Z,101954.11
2019-05-29T11:01:14.564Z,101951.86
2019-05-29T11:03:47.242Z,101953.24
2019-05-29T11:06:17.621Z,101952.42
2019-05-29T11:08:49.999Z,101955.52
2019-05-29T11:11:21.695Z,101954.97
2019-05-29T11:13:55.334Z,101954.94
2019-05-29T11:16:25.974Z,101946.02
2019-05-29T11:18:57.606Z,101944.61
2019-05-29T11:21:28.467Z,101944.02
2019-05-29T11:23:59.764Z,101943.77
2019-05-29T11:26:30.094Z,101943.08
2019-05-29T11:29:00.361Z,101945.27
2019-05-29T11:31:30.807Z,101950.47
2019-05-29T11:34:02.999Z,101951.02
2019-05-29T11:36:33.274Z,101953.42
2019-05-29T11:39:06.265Z,101945.54
2019-05-29T11:41:36.675Z,101947.27
2019-05-29T11:44:07.424Z,101951.66
2019-05-29T11:46:37.842Z,101948.73
2019-05-29T11:49:08.474Z,101945.17
2019-05-29T11:51:39.215Z,101947.92
2019-05-29T11:54:14.263Z,101942.20
2019-05-29T11:56:44.574Z,101946.29
2019-05-29T11:59:15.330Z,101948.05
2019-05-29T12:01:50.156Z,101945.80
2019-05-29T12:04:26.329Z,101941.28
2019-05-29T12:06:51.239Z,101942.57
2019-05-29T12:09:32.123Z,101942.23
2019-05-29T12:11:56.100Z,101944.94
2019-05-29T12:14:28.241Z,101944.48
2019-05-29T12:17:00.260Z,101951.55
2019-05-29T12:19:30.622Z,101947.12
2019-05-29T12:22:02.790Z,101946.63
2019-05-29T12:24:34.899Z,101939.18
2019-05-29T12:27:05.428Z,101946.16
2019-05-29T12:29:35.783Z,101946.12
2019-05-29T12:32:09.374Z,101949.09
2019-05-29T12:34:52.769Z,101940.29
2019-05-29T12:37:11.528Z,101951.75
2019-05-29T12:39:41.846Z,101948.70
2019-05-29T12:42:12.190Z,101944.37
2019-05-29T12:44:43.513Z,101953.22
2019-05-29T12:47:14.260Z,101944.85
2019-05-29T12:49:45.470Z,101949.33
2019-05-29T12:52:16.036Z,101945.72
2019-05-29T12:54:49.151Z,101943.08
2019-05-29T12:57:23.279Z,101941.27
2019-05-29T12:59:51.474Z,101946.14
2019-05-29T13:02:22.756Z,101946.56
2019-05-29T13:05:18.334Z,101949.20
2019-05-29T13:07:27.196Z,101938.11
2019-05-29T13:09:58.912Z,101940.28
2019-05-29T13:12:30.356Z,101937.55
2019-05-29T13:15:03.475Z,101931.37
2019-05-29T13:17:33.772Z,101925.73
2019-05-29T13:20:20.996Z,101925.31
2019-05-29T13:22:40.645Z,101932.34
2019-05-29T13:25:14.315Z,101932.81
2019-05-29T13:27:44.662Z,101939.89
2019-05-29T13:30:17.584Z,101942.19
2019-05-29T13:32:47.962Z,101939.64
2019-05-29T13:35:21.909Z,101938.82
2019-05-29T13:37:51.211Z,101941.89
2019-05-29T13:40:21.943Z,101943.16
2019-05-29T13:42:52.200Z,101943.52
2019-05-29T13:45:23.972Z,101940.33
2019-05-29T13:47:54.179Z,101937.75
2019-05-29T13:50:24.831Z,101935.66
2019-05-29T13:52:55.322Z,101941.03
2019-05-29T13:55:25.863Z,101934.42
2019-05-29T13:57:57.496Z,101925.66
2019-05-29T14:00:33.929Z,101931.33
2019-05-29T14:03:02.670Z,101929.14
2019-05-29T14:05:33.781Z,101927.41
2019-05-29T14:08:04.801Z,101926.52
2019-05-29T14:10:35.763Z,101919.05
2019-05-29T14:13:07.393Z,101934.02
2019-05-29T14:15:39.431Z,101925.22
2019-05-29T14:18:09.883Z,101919.05
2019-05-29T14:20:40.640Z,101919.05
2019-05-29T14:23:11.830Z,101919.92
2019-05-29T14:25:44.199Z,101919.52
2019-05-29T14:28:14.613Z,101921.25
2019-05-29T14:30:45.603Z,101918.19
2019-05-29T14:33:16.052Z,101916.88
2019-05-29T14:35:47.487Z,101915.55
2019-05-29T14:38:17.727Z,101924.78
2019-05-29T14:40:48.380Z,101921.69
2019-05-29T14:43:18.703Z,101927.42
2019-05-29T14:45:50.220Z,101922.13
2019-05-29T14:48:20.539Z,101926.11
2019-05-29T14:50:50.857Z,101921.25
2019-05-29T14:53:21.271Z,101925.23
2019-05-29T14:55:53.235Z,101931.36
2019-05-29T14:58:24.802Z,101925.20
2019-05-29T15:00:55.214Z,101927.41
2019-05-29T15:03:26.049Z,101933.12
2019-05-29T15:05:56.534Z,101934.00
2019-05-29T15:08:27.105Z,101931.80
2019-05-29T15:10:57.841Z,101933.56
2019-05-29T15:13:28.153Z,101927.44
2019-05-29T15:15:58.477Z,101932.27
2019-05-29T15:18:29.598Z,101922.16
2019-05-29T15:21:00.714Z,101912.88
2019-05-29T15:23:31.022Z,101915.02
2019-05-29T15:26:02.539Z,101913.58
2019-05-29T15:28:33.263Z,101902.40
2019-05-29T15:31:03.995Z,101899.72
2019-05-29T15:33:34.484Z,101907.98
2019-05-29T15:36:06.394Z,101906.62
2019-05-29T15:38:37.044Z,101904.87
2019-05-29T15:41:08.603Z,101905.44
2019-05-29T15:43:39.410Z,101913.40
2019-05-29T15:46:12.149Z,101908.13
2019-05-29T15:48:42.623Z,101914.95
2019-05-29T15:51:13.300Z,101916.75
2019-05-29T15:53:43.966Z,101918.98
2019-05-29T15:56:25.555Z,101919.48
2019-05-29T15:58:47.264Z,101919.91
2019-05-29T16:01:18.678Z,101920.36
2019-05-29T16:03:50.601Z,101923.41
2019-05-29T16:06:24.615Z,101917.59
2019-05-29T16:08:55.167Z,101920.68
2019-05-29T16:11:25.959Z,101922.37
2019-05-29T16:13:56.223Z,101917.05
2019-05-29T16:16:26.568Z,101907.72
2019-05-29T16:19:00.415Z,101913.39
2019-05-29T16:21:29.281Z,101908.97
2019-05-29T16:23:59.738Z,101907.64
2019-05-29T16:26:30.959Z,101902.28
2019-05-29T16:29:01.327Z,101903.58
2019-05-29T16:31:31.717Z,101907.20
2019-05-29T16:34:02.707Z,101907.22
2019-05-29T16:36:33.391Z,101904.13
2019-05-29T16:39:05.316Z,101898.77
2019-05-29T16:41:38.025Z,101905.44
2019-05-29T16:44:09.538Z,101897.41
2019-05-29T16:46:40.227Z,101893.48
2019-05-29T16:49:12.481Z,101893.97
2019-05-29T16:51:44.940Z,101894.87
2019-05-29T16:54:15.379Z,101889.62
2019-05-29T16:56:47.759Z,101883.85
2019-05-29T16:59:19.226Z,101890.03
2019-05-29T17:01:49.897Z,101893.20
2019-05-29T17:04:20.241Z,101896.39
2019-05-29T17:06:53.235Z,101898.59
2019-05-29T17:09:24.570Z,101898.66
2019-05-29T17:11:56.128Z,101899.14
2019-05-29T17:14:27.166Z,101903.02
2019-05-29T17:16:57.757Z,101903.45
2019-05-29T17:19:28.242Z,101896.87
2019-05-29T17:21:59.283Z,101899.90
2019-05-29T17:24:29.597Z,101905.60
2019-05-29T17:27:02.556Z,101904.78
2019-05-29T17:29:32.781Z,101906.52
2019-05-29T17:32:03.726Z,101901.30
2019-05-29T17:34:34.177Z,101894.32
2019-05-29T17:37:05.792Z,101904.05
2019-05-29T17:39:36.548Z,101898.31
2019-05-29T17:42:07.702Z,101901.83
2019-05-29T17:44:38.092Z,101904.03
2019-05-29T17:47:09.067Z,101906.67
2019-05-29T17:49:39.619Z,101904.91
2019-05-29T17:52:10.460Z,101902.75
2019-05-29T17:54:40.740Z,101896.99
2019-05-29T17:57:12.374Z,101898.73
2019-05-29T17:59:42.693Z,101902.70
2019-05-29T18:02:14.453Z,101906.72
2019-05-29T18:04:44.807Z,101898.73
2019-05-29T18:07:16.371Z,101897.91
2019-05-29T18:09:47.032Z,101901.43
2019-05-29T18:12:19.164Z,101902.73
2019-05-29T18:14:51.602Z,101906.23
2019-05-29T18:17:23.574Z,101904.95
2019-05-29T18:19:54.452Z,101904.55
2019-05-29T18:22:25.713Z,101899.23
2019-05-29T18:24:56.309Z,101900.12
2019-05-29T18:27:28.150Z,101900.14
2019-05-29T18:29:58.671Z,101902.78
2019-05-29T18:32:29.133Z,101902.34
2019-05-29T18:34:59.871Z,101904.12
2019-05-29T18:37:30.747Z,101911.59
2019-05-29T18:40:01.270Z,101905.00
2019-05-29T18:42:33.252Z,101909.39
2019-05-29T18:45:19.769Z,101905.44
2019-05-29T18:47:38.590Z,101914.69
2019-05-29T18:50:10.201Z,101918.17
2019-05-29T18:52:43.236Z,101919.50
2019-05-29T18:55:15.330Z,101919.95
2019-05-29T18:57:47.256Z,101916.44
2019-05-29T19:00:19.522Z,101926.09
2019-05-29T19:02:51.136Z,101925.65
2019-05-29T19:05:21.624Z,101935.77
2019-05-29T19:07:52.288Z,101935.32
2019-05-29T19:10:24.294Z,101937.55
2019-05-29T19:12:56.470Z,101939.30
2019-05-29T19:15:28.067Z,101945.87
2019-05-29T19:17:58.648Z,101937.48
2019-05-29T19:20:30.503Z,101937.52
2019-05-29T19:23:01.698Z,101943.67
2019-05-29T19:25:33.007Z,101945.00
2019-05-29T19:28:05.518Z,101948.06
2019-05-29T19:30:35.852Z,101962.10
2019-05-29T19:33:08.053Z,101952.91
2019-05-29T19:35:38.375Z,101960.82
2019-05-29T19:38:09.112Z,101958.53
2019-05-29T19:40:39.770Z,101958.09
2019-05-29T19:43:12.316Z,101962.44
2019-05-29T19:45:42.736Z,101963.38
2019-05-29T19:48:15.617Z,101961.56
2019-05-29T19:50:45.968Z,101958.53
2019-05-29T19:53:16.746Z,101958.03
2019-05-29T19:55:47.411Z,101962.43
2019-05-29T19:58:17.755Z,101959.37
2019-05-29T20:00:48.051Z,101961.09
2019-05-29T20:03:20.245Z,101963.66
2019-05-29T20:05:53.560Z,101967.17
2019-05-29T20:08:24.143Z,101965.87
2019-05-29T20:10:54.456Z,101964.08
2019-05-29T20:13:26.115Z,101972.84
2019-05-29T20:15:57.425Z,101974.98
2019-05-29T20:18:29.972Z,101986.03
2019-05-29T20:21:00.705Z,101985.17
2019-05-29T20:23:32.542Z,101983.38
2019-05-29T20:26:03.132Z,101982.95
2019-05-29T20:28:34.243Z,101988.69
2019-05-29T20:31:05.367Z,101994.73
2019-05-29T20:33:36.662Z,101993.48
2019-05-29T20:36:08.310Z,101998.23
2019-05-29T20:38:39.398Z,102000.41
2019-05-29T20:41:11.031Z,102001.75
2019-05-29T20:43:42.302Z,102000.42
2019-05-29T20:46:13.128Z,102006.53
2019-05-29T20:48:43.927Z,102003.48
2019-05-29T20:51:14.653Z,102004.77
2019-05-29T20:53:45.312Z,102009.14
2019-05-29T20:56:16.470Z,102011.80
2019-05-29T20:58:47.755Z,102009.95
2019-05-29T21:01:18.522Z,102016.53
2019-05-29T21:03:50.645Z,102018.38
2019-05-29T21:06:20.968Z,102022.25
2019-05-29T21:08:52.913Z,102022.24
2019-05-29T21:11:23.675Z,102027.49
2019-05-29T21:13:55.885Z,102028.41
2019-05-29T21:16:27.634Z,102033.28
2019-05-29T21:18:57.957Z,102032.84
2019-05-29T21:21:28.199Z,102033.28
2019-05-29T21:24:00.142Z,102036.30
2019-05-29T21:26:30.860Z,102029.37
2019-05-29T21:29:02.237Z,102034.99
2019-05-29T21:31:35.376Z,102029.70
2019-05-29T21:34:06.701Z,102033.21
2019-05-29T21:36:37.966Z,102034.88
2019-05-29T21:39:09.831Z,102037.19
2019-05-29T21:41:40.397Z,102033.67
2019-05-29T21:44:12.597Z,102032.78
2019-05-29T21:46:43.080Z,102033.55
2019-05-29T21:49:13.601Z,102022.87
2019-05-29T21:51:43.943Z,102022.66
2019-05-29T21:54:15.044Z,102026.96
2019-05-29T21:56:47.890Z,102034.27
2019-05-29T21:59:19.812Z,102032.91
2019-05-29T22:01:50.140Z,102027.11
2019-05-29T22:04:20.547Z,102024.62
2019-05-29T22:06:51.189Z,102029.70
2019-05-29T22:09:22.025Z,102027.45
2019-05-29T22:11:52.430Z,102029.22
2019-05-29T22:14:25.493Z,102033.18
2019-05-29T22:16:57.077Z,102029.66
2019-05-29T22:19:30.482Z,102038.02
2019-05-29T22:22:01.320Z,102031.88
2019-05-29T22:24:32.648Z,102038.83
2019-05-29T22:27:03.011Z,102050.23
2019-05-29T22:29:33.376Z,102036.28
2019-05-29T22:32:04.105Z,102045.55
2019-05-29T22:34:35.213Z,102040.30
2019-05-29T22:37:06.118Z,102038.94
2019-05-29T22:39:36.490Z,102038.88
2019-05-29T22:42:07.034Z,102046.09
2019-05-29T22:44:40.369Z,102042.56
2019-05-29T22:47:11.062Z,102043.86
2019-05-29T22:49:42.447Z,102045.16
2019-05-29T22:52:12.763Z,102041.09
2019-05-29T22:54:43.055Z,102044.23
2019-05-29T22:57:13.788Z,102045.06
2019-05-29T22:59:44.245Z,102047.75
2019-05-29T23:02:14.511Z,102057.33
2019-05-29T23:04:45.817Z,102055.61
2019-05-29T23:07:16.056Z,102051.78
2019-05-29T23:09:47.486Z,102052.73
2019-05-29T23:12:17.805Z,102057.47
2019-05-29T23:14:49.467Z,102060.16
2019-05-29T23:17:20.670Z,102062.78
2019-05-29T23:19:52.369Z,102071.41
2019-05-29T23:22:24.615Z,102073.50
2019-05-29T23:24:56.763Z,102077.92
2019-05-29T23:27:27.122Z,102078.61
2019-05-29T23:29:59.042Z,102074.34
2019-05-29T23:32:29.303Z,102072.05
2019-05-29T23:35:01.313Z,102075.56
2019-05-29T23:37:32.651Z,102073.89
2019-05-29T23:40:03.602Z,102075.23
2019-05-29T23:42:34.145Z,102078.19
2019-05-29T23:45:09.072Z,102076.89
2019-05-29T23:47:39.786Z,102074.76
2019-05-29T23:50:10.853Z,102075.64
2019-05-29T23:52:41.197Z,102082.58
2019-05-29T23:55:12.689Z,102078.20
2019-05-29T23:57:43.351Z,102075.98
